sensor_id;sensor_type;location;lat;lon;timestamp;pressure;altitude;pressure_sealevel;temperature;humidity
7109;BME280;29079;41.930;25.558;2023-04-06T00:00:24;99355.22;;;4.27;68.91
7109;BME280;29079;41.930;25.558;2023-04-06T00:02:58;99357.69;;;4.16;68.82
7109;BME280;29079;41.930;25.558;2023-04-06T00:05:31;99360.44;;;4.42;68.47
7109;BME280;29079;41.930;25.558;2023-04-06T00:08:05;99367.66;;;4.52;70.05
7109;BME280;29079;41.930;25.558;2023-04-06T00:10:38;99355.78;;;4.18;69.87
7109;BME280;29079;41.930;25.558;2023-04-06T00:13:13;99351.25;;;4.47;69.72
7109;BME280;29079;41.930;25.558;2023-04-06T00:15:47;99352.50;;;4.42;68.79
7109;BME280;29079;41.930;25.558;2023-04-06T00:18:20;99349.41;;;4.08;68.65
7109;BME280;29079;41.930;25.558;2023-04-06T00:20:53;99341.75;;;4.17;70.23
7109;BME280;29079;41.930;25.558;2023-04-06T00:23:27;99345.19;;;4.32;68.94
7109;BME280;29079;41.930;25.558;2023-04-06T00:26:00;99338.66;;;4.38;68.44
7109;BME280;29079;41.930;25.558;2023-04-06T00:28:35;99337.75;;;4.25;69.19
7109;BME280;29079;41.930;25.558;2023-04-06T00:31:08;99327.66;;;4.31;70.70
7109;BME280;29079;41.930;25.558;2023-04-06T00:33:41;99328.34;;;4.21;68.47
7109;BME280;29079;41.930;25.558;2023-04-06T00:36:14;99329.44;;;4.31;69.18
7109;BME280;29079;41.930;25.558;2023-04-06T00:38:47;99326.38;;;4.24;68.67
7109;BME280;29079;41.930;25.558;2023-04-06T00:41:20;99314.72;;;4.14;69.30
7109;BME280;29079;41.930;25.558;2023-04-06T00:43:56;99316.59;;;4.12;69.89
7109;BME280;29079;41.930;25.558;2023-04-06T00:46:29;99316.72;;;4.23;70.15
7109;BME280;29079;41.930;25.558;2023-04-06T00:49:02;99313.16;;;4.24;68.71
7109;BME280;29079;41.930;25.558;2023-04-06T00:51:36;99309.44;;;4.27;71.14
7109;BME280;29079;41.930;25.558;2023-04-06T00:54:09;99304.72;;;4.32;72.38
7109;BME280;29079;41.930;25.558;2023-04-06T00:56:43;99310.25;;;3.87;68.53
7109;BME280;29079;41.930;25.558;2023-04-06T00:59:17;99304.97;;;4.14;70.21
7109;BME280;29079;41.930;25.558;2023-04-06T01:01:51;99304.19;;;3.99;68.65
7109;BME280;29079;41.930;25.558;2023-04-06T01:04:24;99303.38;;;3.84;68.70
7109;BME280;29079;41.930;25.558;2023-04-06T01:06:57;99310.13;;;4.03;69.07
7109;BME280;29079;41.930;25.558;2023-04-06T01:09:31;99303.22;;;4.00;68.16
7109;BME280;29079;41.930;25.558;2023-04-06T01:12:05;99303.94;;;3.90;68.83
7109;BME280;29079;41.930;25.558;2023-04-06T01:14:40;99310.16;;;3.89;69.29
7109;BME280;29079;41.930;25.558;2023-04-06T01:17:13;99307.78;;;3.98;68.59
7109;BME280;29079;41.930;25.558;2023-04-06T01:19:47;99310.94;;;3.91;67.88
7109;BME280;29079;41.930;25.558;2023-04-06T01:22:22;99301.81;;;3.82;68.27
7109;BME280;29079;41.930;25.558;2023-04-06T01:24:57;99302.75;;;4.21;66.85
7109;BME280;29079;41.930;25.558;2023-04-06T01:27:30;99298.59;;;4.44;68.55
7109;BME280;29079;41.930;25.558;2023-04-06T01:30:03;99299.50;;;4.17;67.17
7109;BME280;29079;41.930;25.558;2023-04-06T01:32:37;99294.50;;;4.40;67.21
7109;BME280;29079;41.930;25.558;2023-04-06T01:35:11;99285.44;;;4.17;66.58
7109;BME280;29079;41.930;25.558;2023-04-06T01:37:45;99292.88;;;4.38;66.55
7109;BME280;29079;41.930;25.558;2023-04-06T01:40:19;99286.56;;;4.40;65.81
7109;BME280;29079;41.930;25.558;2023-04-06T01:42:52;99289.50;;;4.48;66.48
7109;BME280;29079;41.930;25.558;2023-04-06T01:45:25;99290.94;;;4.14;66.13
7109;BME280;29079;41.930;25.558;2023-04-06T01:47:58;99290.16;;;4.52;67.04
7109;BME280;29079;41.930;25.558;2023-04-06T01:50:32;99295.06;;;4.84;66.94
7109;BME280;29079;41.930;25.558;2023-04-06T01:53:06;99285.88;;;4.24;65.26
7109;BME280;29079;41.930;25.558;2023-04-06T01:55:40;99277.56;;;4.30;65.37
7109;BME280;29079;41.930;25.558;2023-04-06T01:58:13;99277.47;;;4.31;65.52
7109;BME280;29079;41.930;25.558;2023-04-06T02:00:47;99277.38;;;4.06;65.74
7109;BME280;29079;41.930;25.558;2023-04-06T02:03:20;99274.44;;;4.10;66.68
7109;BME280;29079;41.930;25.558;2023-04-06T02:05:53;99275.16;;;4.12;65.95
7109;BME280;29079;41.930;25.558;2023-04-06T02:08:28;99272.84;;;4.08;66.31
7109;BME280;29079;41.930;25.558;2023-04-06T02:11:01;99274.91;;;3.90;65.84
7109;BME280;29079;41.930;25.558;2023-04-06T02:13:35;99270.59;;;4.01;66.41
7109;BME280;29079;41.930;25.558;2023-04-06T02:16:08;99274.75;;;4.06;67.13
7109;BME280;29079;41.930;25.558;2023-04-06T02:18:42;99273.88;;;4.05;66.18
7109;BME280;29079;41.930;25.558;2023-04-06T02:21:15;99270.97;;;4.10;66.08
7109;BME280;29079;41.930;25.558;2023-04-06T02:23:53;99276.78;;;3.88;66.79
7109;BME280;29079;41.930;25.558;2023-04-06T02:26:26;99271.69;;;4.12;65.35
7109;BME280;29079;41.930;25.558;2023-04-06T02:28:59;99271.22;;;3.92;65.87
7109;BME280;29079;41.930;25.558;2023-04-06T02:31:33;99264.97;;;3.93;66.62
7109;BME280;29079;41.930;25.558;2023-04-06T02:34:06;99266.72;;;4.07;66.52
7109;BME280;29079;41.930;25.558;2023-04-06T02:36:43;99263.97;;;3.81;67.05
7109;BME280;29079;41.930;25.558;2023-04-06T02:39:17;99264.50;;;4.01;68.28
7109;BME280;29079;41.930;25.558;2023-04-06T02:41:51;99268.97;;;3.86;65.70
7109;BME280;29079;41.930;25.558;2023-04-06T02:44:24;99268.59;;;3.92;66.24
7109;BME280;29079;41.930;25.558;2023-04-06T02:46:57;99273.03;;;3.77;68.14
7109;BME280;29079;41.930;25.558;2023-04-06T02:49:30;99275.47;;;4.08;65.38
7109;BME280;29079;41.930;25.558;2023-04-06T02:52:04;99269.56;;;3.77;64.84
7109;BME280;29079;41.930;25.558;2023-04-06T02:54:38;99263.72;;;3.72;65.35
7109;BME280;29079;41.930;25.558;2023-04-06T02:57:11;99258.75;;;3.94;64.63
7109;BME280;29079;41.930;25.558;2023-04-06T02:59:48;99261.91;;;3.87;65.87
7109;BME280;29079;41.930;25.558;2023-04-06T03:02:21;99259.53;;;3.69;65.05
7109;BME280;29079;41.930;25.558;2023-04-06T03:04:54;99259.78;;;3.92;65.34
7109;BME280;29079;41.930;25.558;2023-04-06T03:07:28;99252.28;;;3.86;65.25
7109;BME280;29079;41.930;25.558;2023-04-06T03:10:02;99259.41;;;3.71;64.80
7109;BME280;29079;41.930;25.558;2023-04-06T03:12:39;99270.66;;;3.87;67.78
7109;BME280;29079;41.930;25.558;2023-04-06T03:15:13;99259.16;;;3.88;65.33
7109;BME280;29079;41.930;25.558;2023-04-06T03:17:47;99260.16;;;3.73;65.23
7109;BME280;29079;41.930;25.558;2023-04-06T03:20:20;99259.84;;;3.77;65.64
7109;BME280;29079;41.930;25.558;2023-04-06T03:22:53;99259.25;;;3.59;66.36
7109;BME280;29079;41.930;25.558;2023-04-06T03:25:28;99262.75;;;3.45;66.99
7109;BME280;29079;41.930;25.558;2023-04-06T03:28:02;99269.06;;;3.57;66.56
7109;BME280;29079;41.930;25.558;2023-04-06T03:30:35;99271.25;;;3.51;65.87
7109;BME280;29079;41.930;25.558;2023-04-06T03:33:09;99272.63;;;3.71;66.58
7109;BME280;29079;41.930;25.558;2023-04-06T03:35:42;99270.41;;;3.77;65.94
7109;BME280;29079;41.930;25.558;2023-04-06T03:38:15;99213.53;;;3.31;65.35
7109;BME280;29079;41.930;25.558;2023-04-06T03:40:50;99274.81;;;3.49;66.96
7109;BME280;29079;41.930;25.558;2023-04-06T03:43:23;99269.50;;;3.64;66.29
7109;BME280;29079;41.930;25.558;2023-04-06T03:45:58;99268.47;;;3.94;65.79
7109;BME280;29079;41.930;25.558;2023-04-06T03:48:35;99272.22;;;3.77;66.46
7109;BME280;29079;41.930;25.558;2023-04-06T03:51:08;99263.66;;;3.73;66.88
7109;BME280;29079;41.930;25.558;2023-04-06T03:53:41;99271.22;;;3.65;67.18
7109;BME280;29079;41.930;25.558;2023-04-06T03:56:16;99271.78;;;3.56;66.66
7109;BME280;29079;41.930;25.558;2023-04-06T03:58:49;99268.41;;;3.54;67.25
7109;BME280;29079;41.930;25.558;2023-04-06T04:01:25;99266.59;;;3.54;66.76
7109;BME280;29079;41.930;25.558;2023-04-06T04:03:58;99267.91;;;3.61;66.45
7109;BME280;29079;41.930;25.558;2023-04-06T04:06:31;99267.41;;;3.42;67.22
7109;BME280;29079;41.930;25.558;2023-04-06T04:09:05;99265.03;;;3.52;67.25
7109;BME280;29079;41.930;25.558;2023-04-06T04:11:39;99271.34;;;3.49;67.33
7109;BME280;29079;41.930;25.558;2023-04-06T04:14:13;99270.41;;;3.50;66.98
7109;BME280;29079;41.930;25.558;2023-04-06T04:16:47;99273.06;;;3.50;68.09
7109;BME280;29079;41.930;25.558;2023-04-06T04:19:20;99273.50;;;3.42;67.07
7109;BME280;29079;41.930;25.558;2023-04-06T04:21:53;99270.34;;;3.64;68.24
7109;BME280;29079;41.930;25.558;2023-04-06T04:24:26;99275.69;;;3.50;67.53
7109;BME280;29079;41.930;25.558;2023-04-06T04:27:01;99278.25;;;3.64;67.14
7109;BME280;29079;41.930;25.558;2023-04-06T04:29:35;99283.75;;;3.61;66.86
7109;BME280;29079;41.930;25.558;2023-04-06T04:32:08;99280.78;;;3.39;67.43
7109;BME280;29079;41.930;25.558;2023-04-06T04:34:41;99278.38;;;3.90;66.92
7109;BME280;29079;41.930;25.558;2023-04-06T04:37:14;99276.13;;;3.57;67.23
7109;BME280;29079;41.930;25.558;2023-04-06T04:39:47;99279.06;;;3.52;67.76
7109;BME280;29079;41.930;25.558;2023-04-06T04:42:22;99273.56;;;3.70;67.90
7109;BME280;29079;41.930;25.558;2023-04-06T04:44:55;99269.97;;;3.71;68.76
7109;BME280;29079;41.930;25.558;2023-04-06T04:47:29;99272.97;;;3.64;68.05
7109;BME280;29079;41.930;25.558;2023-04-06T04:50:02;99277.34;;;3.51;69.68
7109;BME280;29079;41.930;25.558;2023-04-06T04:52:36;99276.69;;;3.62;67.75
7109;BME280;29079;41.930;25.558;2023-04-06T04:55:09;99279.16;;;3.51;67.23
7109;BME280;29079;41.930;25.558;2023-04-06T04:57:44;99280.28;;;3.46;68.59
7109;BME280;29079;41.930;25.558;2023-04-06T05:00:17;99277.00;;;3.57;67.55
7109;BME280;29079;41.930;25.558;2023-04-06T05:02:51;99275.78;;;3.76;67.44
7109;BME280;29079;41.930;25.558;2023-04-06T05:05:25;99275.94;;;3.87;67.07
7109;BME280;29079;41.930;25.558;2023-04-06T05:07:58;99271.06;;;3.81;67.48
7109;BME280;29079;41.930;25.558;2023-04-06T05:10:31;99276.69;;;3.89;68.77
7109;BME280;29079;41.930;25.558;2023-04-06T05:13:07;99280.75;;;4.08;68.09
7109;BME280;29079;41.930;25.558;2023-04-06T05:15:41;99272.41;;;4.01;67.01
7109;BME280;29079;41.930;25.558;2023-04-06T05:18:15;99272.50;;;3.99;66.90
7109;BME280;29079;41.930;25.558;2023-04-06T05:20:48;99275.53;;;4.33;70.21
7109;BME280;29079;41.930;25.558;2023-04-06T05:23:23;99277.31;;;4.20;68.59
7109;BME280;29079;41.930;25.558;2023-04-06T05:25:56;99267.41;;;3.96;68.18
7109;BME280;29079;41.930;25.558;2023-04-06T05:28:31;99273.53;;;4.24;68.32
7109;BME280;29079;41.930;25.558;2023-04-06T05:31:05;99269.94;;;4.38;66.81
7109;BME280;29079;41.930;25.558;2023-04-06T05:33:41;99266.06;;;4.44;67.93
7109;BME280;29079;41.930;25.558;2023-04-06T05:36:14;99265.72;;;4.35;66.49
7109;BME280;29079;41.930;25.558;2023-04-06T05:38:47;99273.25;;;4.42;68.17
7109;BME280;29079;41.930;25.558;2023-04-06T05:41:22;99276.63;;;4.44;67.02
7109;BME280;29079;41.930;25.558;2023-04-06T05:43:58;99285.69;;;4.40;66.51
7109;BME280;29079;41.930;25.558;2023-04-06T05:46:31;99274.53;;;4.49;67.36
7109;BME280;29079;41.930;25.558;2023-04-06T05:49:04;99258.56;;;4.63;70.22
7109;BME280;29079;41.930;25.558;2023-04-06T05:51:38;99265.66;;;4.76;67.21
7109;BME280;29079;41.930;25.558;2023-04-06T05:54:11;99265.22;;;4.56;66.97
7109;BME280;29079;41.930;25.558;2023-04-06T05:56:45;99265.34;;;4.55;67.25
7109;BME280;29079;41.930;25.558;2023-04-06T05:59:19;99281.28;;;4.53;66.86
7109;BME280;29079;41.930;25.558;2023-04-06T06:01:52;99271.34;;;4.44;67.41
7109;BME280;29079;41.930;25.558;2023-04-06T06:04:26;99256.66;;;4.65;67.17
7109;BME280;29079;41.930;25.558;2023-04-06T06:06:59;99258.00;;;4.45;67.40
7109;BME280;29079;41.930;25.558;2023-04-06T06:09:33;99262.69;;;4.67;67.56
7109;BME280;29079;41.930;25.558;2023-04-06T06:12:07;99264.25;;;4.70;67.48
7109;BME280;29079;41.930;25.558;2023-04-06T06:14:45;99263.31;;;4.71;67.37
7109;BME280;29079;41.930;25.558;2023-04-06T06:17:18;99262.25;;;4.86;66.79
7109;BME280;29079;41.930;25.558;2023-04-06T06:19:52;99266.16;;;4.55;66.74
7109;BME280;29079;41.930;25.558;2023-04-06T06:22:25;99265.41;;;4.53;67.68
7109;BME280;29079;41.930;25.558;2023-04-06T06:24:59;99272.41;;;4.67;66.81
7109;BME280;29079;41.930;25.558;2023-04-06T06:27:33;99272.53;;;4.65;67.13
7109;BME280;29079;41.930;25.558;2023-04-06T06:30:08;99270.28;;;4.85;67.51
7109;BME280;29079;41.930;25.558;2023-04-06T06:32:41;99273.78;;;4.73;66.59
7109;BME280;29079;41.930;25.558;2023-04-06T06:35:14;99276.34;;;4.87;66.10
7109;BME280;29079;41.930;25.558;2023-04-06T06:37:47;99273.47;;;4.90;65.94
7109;BME280;29079;41.930;25.558;2023-04-06T06:40:21;99268.66;;;5.34;66.92
7109;BME280;29079;41.930;25.558;2023-04-06T06:42:56;99270.84;;;5.40;64.15
7109;BME280;29079;41.930;25.558;2023-04-06T06:45:30;99266.19;;;5.44;64.71
7109;BME280;29079;41.930;25.558;2023-04-06T06:48:03;99275.41;;;5.75;63.79
7109;BME280;29079;41.930;25.558;2023-04-06T06:50:37;99268.94;;;5.79;62.56
7109;BME280;29079;41.930;25.558;2023-04-06T06:53:10;99269.94;;;5.89;61.79
7109;BME280;29079;41.930;25.558;2023-04-06T06:55:44;99266.00;;;5.71;61.97
7109;BME280;29079;41.930;25.558;2023-04-06T06:58:17;99268.38;;;5.87;61.44
7109;BME280;29079;41.930;25.558;2023-04-06T07:00:55;99275.63;;;5.96;61.43
7109;BME280;29079;41.930;25.558;2023-04-06T07:03:28;99271.63;;;6.03;60.98
7109;BME280;29079;41.930;25.558;2023-04-06T07:06:01;99278.44;;;6.19;60.34
7109;BME280;29079;41.930;25.558;2023-04-06T07:08:35;99277.53;;;6.42;60.00
7109;BME280;29079;41.930;25.558;2023-04-06T07:11:08;99280.78;;;6.46;62.10
7109;BME280;29079;41.930;25.558;2023-04-06T07:13:42;99274.25;;;6.39;59.10
7109;BME280;29079;41.930;25.558;2023-04-06T07:16:17;99278.72;;;6.38;58.87
7109;BME280;29079;41.930;25.558;2023-04-06T07:18:50;99279.44;;;6.40;59.04
7109;BME280;29079;41.930;25.558;2023-04-06T07:21:23;99279.44;;;6.29;59.17
7109;BME280;29079;41.930;25.558;2023-04-06T07:23:57;99272.97;;;6.44;59.61
7109;BME280;29079;41.930;25.558;2023-04-06T07:26:30;99281.34;;;6.62;59.21
7109;BME280;29079;41.930;25.558;2023-04-06T07:29:03;99284.16;;;6.37;60.87
7109;BME280;29079;41.930;25.558;2023-04-06T07:31:38;99283.59;;;6.56;57.67
7109;BME280;29079;41.930;25.558;2023-04-06T07:34:11;99281.69;;;6.58;58.11
7109;BME280;29079;41.930;25.558;2023-04-06T07:36:45;99282.56;;;6.70;57.96
7109;BME280;29079;41.930;25.558;2023-04-06T07:39:18;99280.44;;;6.39;58.03
7109;BME280;29079;41.930;25.558;2023-04-06T07:41:52;99280.03;;;6.68;59.12
7109;BME280;29079;41.930;25.558;2023-04-06T07:44:25;99281.44;;;6.72;58.04
7109;BME280;29079;41.930;25.558;2023-04-06T07:47:00;99278.97;;;6.93;58.08
7109;BME280;29079;41.930;25.558;2023-04-06T07:49:33;99265.84;;;7.14;57.96
7109;BME280;29079;41.930;25.558;2023-04-06T07:52:06;99267.13;;;7.20;57.64
7109;BME280;29079;41.930;25.558;2023-04-06T07:54:40;99265.69;;;7.27;58.34
7109;BME280;29079;41.930;25.558;2023-04-06T07:57:13;99262.31;;;7.03;58.23
7109;BME280;29079;41.930;25.558;2023-04-06T07:59:46;99255.22;;;7.14;57.67
7109;BME280;29079;41.930;25.558;2023-04-06T08:02:21;99257.97;;;7.36;57.71
7109;BME280;29079;41.930;25.558;2023-04-06T08:04:55;99253.28;;;7.39;57.23
7109;BME280;29079;41.930;25.558;2023-04-06T08:07:28;99254.00;;;7.30;56.08
7109;BME280;29079;41.930;25.558;2023-04-06T08:10:03;99256.88;;;7.38;56.68
7109;BME280;29079;41.930;25.558;2023-04-06T08:12:38;99256.63;;;7.41;56.35
7109;BME280;29079;41.930;25.558;2023-04-06T08:15:12;99246.13;;;7.51;56.04
7109;BME280;29079;41.930;25.558;2023-04-06T08:17:46;99240.91;;;7.61;56.91
7109;BME280;29079;41.930;25.558;2023-04-06T08:20:19;99250.31;;;7.65;55.97
7109;BME280;29079;41.930;25.558;2023-04-06T08:22:53;99246.41;;;7.80;55.58
7109;BME280;29079;41.930;25.558;2023-04-06T08:25:27;99234.53;;;7.52;56.12
7109;BME280;29079;41.930;25.558;2023-04-06T08:28:00;99236.44;;;7.73;56.70
7109;BME280;29079;41.930;25.558;2023-04-06T08:30:33;99238.25;;;7.61;55.75
7109;BME280;29079;41.930;25.558;2023-04-06T08:33:08;99235.53;;;7.83;56.68
7109;BME280;29079;41.930;25.558;2023-04-06T08:35:41;99230.41;;;8.03;55.82
7109;BME280;29079;41.930;25.558;2023-04-06T08:38:15;99231.16;;;7.94;55.99
7109;BME280;29079;41.930;25.558;2023-04-06T08:40:48;99237.41;;;7.93;55.87
7109;BME280;29079;41.930;25.558;2023-04-06T08:43:23;99222.09;;;8.17;57.49
7109;BME280;29079;41.930;25.558;2023-04-06T08:45:57;99227.81;;;8.34;56.16
7109;BME280;29079;41.930;25.558;2023-04-06T08:48:32;99226.00;;;8.13;55.59
7109;BME280;29079;41.930;25.558;2023-04-06T08:51:06;99223.13;;;8.05;56.46
7109;BME280;29079;41.930;25.558;2023-04-06T08:53:39;99228.84;;;8.22;56.28
7109;BME280;29079;41.930;25.558;2023-04-06T08:56:13;99228.50;;;8.47;55.53
7109;BME280;29079;41.930;25.558;2023-04-06T08:58:47;99228.19;;;8.08;55.83
7109;BME280;29079;41.930;25.558;2023-04-06T09:01:21;99227.66;;;8.14;57.01
7109;BME280;29079;41.930;25.558;2023-04-06T09:03:56;99219.47;;;8.39;56.08
7109;BME280;29079;41.930;25.558;2023-04-06T09:06:31;99220.19;;;8.62;56.15
7109;BME280;29079;41.930;25.558;2023-04-06T09:09:04;99215.53;;;8.54;56.13
7109;BME280;29079;41.930;25.558;2023-04-06T09:11:44;99210.56;;;8.70;56.61
7109;BME280;29079;41.930;25.558;2023-04-06T09:14:32;99207.03;;;8.60;56.22
7109;BME280;29079;41.930;25.558;2023-04-06T09:17:06;99201.50;;;8.52;56.28
7109;BME280;29079;41.930;25.558;2023-04-06T09:19:46;99209.56;;;8.62;56.05
7109;BME280;29079;41.930;25.558;2023-04-06T09:22:19;99199.00;;;8.81;56.03
7109;BME280;29079;41.930;25.558;2023-04-06T09:24:53;99198.50;;;8.97;55.42
7109;BME280;29079;41.930;25.558;2023-04-06T09:27:30;99204.31;;;8.81;55.07
7109;BME280;29079;41.930;25.558;2023-04-06T09:30:04;99197.69;;;8.66;55.82
7109;BME280;29079;41.930;25.558;2023-04-06T09:32:45;99192.06;;;9.00;55.51
7109;BME280;29079;41.930;25.558;2023-04-06T09:35:21;99201.94;;;9.19;55.36
7109;BME280;29079;41.930;25.558;2023-04-06T09:37:55;99196.59;;;8.78;55.32
7109;BME280;29079;41.930;25.558;2023-04-06T09:40:28;99188.88;;;9.06;54.51
7109;BME280;29079;41.930;25.558;2023-04-06T09:43:01;99184.53;;;9.15;55.52
7109;BME280;29079;41.930;25.558;2023-04-06T09:45:39;99182.56;;;9.07;54.74
7109;BME280;29079;41.930;25.558;2023-04-06T09:48:12;99174.31;;;9.00;56.01
7109;BME280;29079;41.930;25.558;2023-04-06T09:50:47;99168.81;;;8.92;54.09
7109;BME280;29079;41.930;25.558;2023-04-06T09:53:21;99176.56;;;9.05;53.64
7109;BME280;29079;41.930;25.558;2023-04-06T09:55:59;99171.31;;;9.34;54.24
7109;BME280;29079;41.930;25.558;2023-04-06T09:58:36;99170.19;;;9.47;53.04
7109;BME280;29079;41.930;25.558;2023-04-06T10:01:12;99167.81;;;9.53;53.13
7109;BME280;29079;41.930;25.558;2023-04-06T10:03:47;99166.41;;;9.49;54.52
7109;BME280;29079;41.930;25.558;2023-04-06T10:06:24;99174.25;;;9.31;54.03
7109;BME280;29079;41.930;25.558;2023-04-06T10:08:59;99169.78;;;9.51;53.35
7109;BME280;29079;41.930;25.558;2023-04-06T10:11:34;99169.22;;;9.48;54.50
7109;BME280;29079;41.930;25.558;2023-04-06T10:14:08;99172.97;;;9.45;54.45
7109;BME280;29079;41.930;25.558;2023-04-06T10:16:44;99161.59;;;9.23;53.38
7109;BME280;29079;41.930;25.558;2023-04-06T10:19:21;99160.81;;;9.52;54.10
7109;BME280;29079;41.930;25.558;2023-04-06T10:21:58;99159.28;;;9.50;53.80
7109;BME280;29079;41.930;25.558;2023-04-06T10:24:35;99162.78;;;9.50;52.74
7109;BME280;29079;41.930;25.558;2023-04-06T10:27:08;99158.00;;;9.64;52.82
7109;BME280;29079;41.930;25.558;2023-04-06T10:29:46;99159.69;;;9.55;52.97
7109;BME280;29079;41.930;25.558;2023-04-06T10:32:20;99159.97;;;9.62;52.56
7109;BME280;29079;41.930;25.558;2023-04-06T10:35:07;99156.06;;;9.66;52.32
7109;BME280;29079;41.930;25.558;2023-04-06T10:37:51;99153.25;;;9.67;52.93
7109;BME280;29079;41.930;25.558;2023-04-06T10:40:24;99158.88;;;9.93;51.61
7109;BME280;29079;41.930;25.558;2023-04-06T10:43:06;99150.16;;;9.72;52.05
7109;BME280;29079;41.930;25.558;2023-04-06T10:45:40;99147.75;;;9.49;52.73
7109;BME280;29079;41.930;25.558;2023-04-06T10:48:15;99145.41;;;9.66;54.54
7109;BME280;29079;41.930;25.558;2023-04-06T10:50:49;99144.28;;;9.78;53.49
7109;BME280;29079;41.930;25.558;2023-04-06T10:53:25;99139.38;;;9.73;53.56
7109;BME280;29079;41.930;25.558;2023-04-06T10:55:58;99142.59;;;9.67;52.46
7109;BME280;29079;41.930;25.558;2023-04-06T10:58:33;99147.91;;;9.57;52.87
7109;BME280;29079;41.930;25.558;2023-04-06T11:01:06;99129.69;;;9.43;51.52
7109;BME280;29079;41.930;25.558;2023-04-06T11:03:43;99122.09;;;9.29;51.88
7109;BME280;29079;41.930;25.558;2023-04-06T11:06:20;99133.31;;;9.71;53.05
7109;BME280;29079;41.930;25.558;2023-04-06T11:08:55;99126.03;;;9.64;51.53
7109;BME280;29079;41.930;25.558;2023-04-06T11:11:29;99128.69;;;9.64;53.06
7109;BME280;29079;41.930;25.558;2023-04-06T11:14:03;99126.03;;;9.73;51.50
7109;BME280;29079;41.930;25.558;2023-04-06T11:16:37;99112.97;;;9.90;54.33
7109;BME280;29079;41.930;25.558;2023-04-06T11:19:11;99104.97;;;9.90;51.79
7109;BME280;29079;41.930;25.558;2023-04-06T11:21:46;99106.34;;;10.14;51.97
7109;BME280;29079;41.930;25.558;2023-04-06T11:24:21;99107.41;;;10.31;50.47
7109;BME280;29079;41.930;25.558;2023-04-06T11:26:57;99100.19;;;10.03;51.07
7109;BME280;29079;41.930;25.558;2023-04-06T11:29:33;99095.22;;;10.28;50.05
7109;BME280;29079;41.930;25.558;2023-04-06T11:32:08;99099.88;;;10.36;50.28
7109;BME280;29079;41.930;25.558;2023-04-06T11:34:41;99095.66;;;10.23;49.06
7109;BME280;29079;41.930;25.558;2023-04-06T11:37:14;99095.22;;;10.28;50.39
7109;BME280;29079;41.930;25.558;2023-04-06T11:39:49;99099.50;;;10.58;49.34
7109;BME280;29079;41.930;25.558;2023-04-06T11:42:23;99084.66;;;10.46;50.25
7109;BME280;29079;41.930;25.558;2023-04-06T11:44:58;99090.22;;;10.62;52.60
7109;BME280;29079;41.930;25.558;2023-04-06T11:47:32;99090.47;;;10.69;52.01
7109;BME280;29079;41.930;25.558;2023-04-06T11:50:06;99082.53;;;10.50;52.83
7109;BME280;29079;41.930;25.558;2023-04-06T11:52:42;99092.22;;;10.51;51.43
7109;BME280;29079;41.930;25.558;2023-04-06T11:55:17;99082.75;;;10.28;51.42
7109;BME280;29079;41.930;25.558;2023-04-06T11:57:51;99082.19;;;10.35;53.63
7109;BME280;29079;41.930;25.558;2023-04-06T12:00:24;99084.03;;;10.62;53.78
7109;BME280;29079;41.930;25.558;2023-04-06T12:02:58;99079.00;;;10.59;51.15
7109;BME280;29079;41.930;25.558;2023-04-06T12:05:32;99084.97;;;10.71;50.47
7109;BME280;29079;41.930;25.558;2023-04-06T12:08:06;99082.53;;;10.77;50.42
7109;BME280;29079;41.930;25.558;2023-04-06T12:10:41;99073.59;;;10.69;49.62
7109;BME280;29079;41.930;25.558;2023-04-06T12:13:14;99081.72;;;10.77;50.66
7109;BME280;29079;41.930;25.558;2023-04-06T12:15:48;99082.50;;;10.59;50.02
7109;BME280;29079;41.930;25.558;2023-04-06T12:18:21;99081.53;;;10.60;51.08
7109;BME280;29079;41.930;25.558;2023-04-06T12:20:55;99069.66;;;10.45;51.18
7109;BME280;29079;41.930;25.558;2023-04-06T12:23:28;99069.47;;;10.56;51.89
7109;BME280;29079;41.930;25.558;2023-04-06T12:26:04;99071.78;;;10.69;50.56
7109;BME280;29079;41.930;25.558;2023-04-06T12:28:43;99066.78;;;10.84;49.91
7109;BME280;29079;41.930;25.558;2023-04-06T12:31:17;99060.69;;;10.64;50.98
7109;BME280;29079;41.930;25.558;2023-04-06T12:33:50;99065.97;;;10.84;50.63
7109;BME280;29079;41.930;25.558;2023-04-06T12:36:24;99059.84;;;10.73;50.46
7109;BME280;29079;41.930;25.558;2023-04-06T12:38:58;99060.84;;;10.90;51.60
7109;BME280;29079;41.930;25.558;2023-04-06T12:41:33;99050.97;;;10.73;50.81
7109;BME280;29079;41.930;25.558;2023-04-06T12:44:07;99046.97;;;10.87;52.38
7109;BME280;29079;41.930;25.558;2023-04-06T12:46:40;99046.16;;;11.04;51.26
7109;BME280;29079;41.930;25.558;2023-04-06T12:49:14;99048.50;;;10.89;50.92
7109;BME280;29079;41.930;25.558;2023-04-06T12:51:50;99039.47;;;10.90;51.56
7109;BME280;29079;41.930;25.558;2023-04-06T12:54:24;99039.44;;;11.00;50.57
7109;BME280;29079;41.930;25.558;2023-04-06T12:56:59;99044.84;;;11.26;49.90
7109;BME280;29079;41.930;25.558;2023-04-06T12:59:33;99037.91;;;11.15;49.80
7109;BME280;29079;41.930;25.558;2023-04-06T13:02:07;99029.44;;;11.20;49.15
7109;BME280;29079;41.930;25.558;2023-04-06T13:04:40;99034.41;;;11.33;49.25
7109;BME280;29079;41.930;25.558;2023-04-06T13:07:13;99030.59;;;11.18;48.96
7109;BME280;29079;41.930;25.558;2023-04-06T13:09:46;99025.69;;;11.31;49.35
7109;BME280;29079;41.930;25.558;2023-04-06T13:12:23;99023.25;;;11.38;49.69
7109;BME280;29079;41.930;25.558;2023-04-06T13:14:57;99015.31;;;11.46;48.04
7109;BME280;29079;41.930;25.558;2023-04-06T13:17:32;99003.16;;;11.52;48.18
7109;BME280;29079;41.930;25.558;2023-04-06T13:20:06;99012.66;;;11.46;48.56
7109;BME280;29079;41.930;25.558;2023-04-06T13:22:39;99004.44;;;11.65;51.46
7109;BME280;29079;41.930;25.558;2023-04-06T13:25:23;99004.81;;;11.71;49.04
7109;BME280;29079;41.930;25.558;2023-04-06T13:27:57;99008.88;;;11.57;48.25
7109;BME280;29079;41.930;25.558;2023-04-06T13:30:31;99006.69;;;11.52;48.78
7109;BME280;29079;41.930;25.558;2023-04-06T13:33:04;98999.13;;;11.47;48.18
7109;BME280;29079;41.930;25.558;2023-04-06T13:35:38;99009.13;;;11.45;49.07
7109;BME280;29079;41.930;25.558;2023-04-06T13:38:11;99005.81;;;11.52;50.30
7109;BME280;29079;41.930;25.558;2023-04-06T13:40:44;99003.84;;;11.54;52.09
7109;BME280;29079;41.930;25.558;2023-04-06T13:43:19;98999.91;;;11.66;55.20
7109;BME280;29079;41.930;25.558;2023-04-06T13:45:53;98997.09;;;11.67;51.95